Time,TemperatureF,DewpointF,PressureIn,WindDirection,WindDirectionDegrees,WindSpeedMPH,WindSpeedGustMPH,Humidity,HourlyPrecipIn,Conditions,Clouds,dailyrainin,SoftwareType,DateUTC
2013-04-09 00:00:00,45.7,42.7,29.97,WSW,248,3.0,14.0,89,0.00,,---,0.20,VWS V14.01,2013-04-09 04:00:00,
2013-04-09 00:01:00,45.7,42.7,29.97,WNW,291,5.0,14.0,89,0.00,,---,0.20,VWS V14.01,2013-04-09 04:01:00,
2013-04-09 00:02:00,45.7,42.7,29.97,WNW,290,7.0,14.0,89,0.00,,---,0.00,VWS V14.01,2013-04-09 04:02:00,
2013-04-09 00:07:00,45.7,42.7,29.97,NW,311,8.0,11.0,89,0.00,,---,0.00,VWS V14.01,2013-04-09 04:07:00,
2013-04-09 00:12:00,45.6,42.5,29.98,West,272,8.0,13.0,89,0.00,,---,0.00,VWS V14.01,2013-04-09 04:12:00,
2013-04-09 00:17:00,45.6,42.5,29.98,NW,321,2.0,13.0,89,0.00,,---,0.00,VWS V14.01,2013-04-09 04:17:00,
2013-04-09 00:22:00,45.5,42.5,29.98,NNW,328,14.0,14.0,89,0.00,,---,0.00,VWS V14.01,2013-04-09 04:22:00,
2013-04-09 00:27:00,45.5,42.5,29.98,WNW,300,7.0,14.0,89,0.00,,---,0.00,VWS V14.01,2013-04-09 04:27:00,
2013-04-09 00:32:00,45.4,42.3,29.99,NNW,338,6.0,14.0,89,0.00,,---,0.00,VWS V14.01,2013-04-09 04:32:00,
2013-04-09 00:37:00,45.4,42.3,29.99,NW,304,7.0,15.0,89,0.00,,---,0.00,VWS V14.01,2013-04-09 04:37:00,
2013-04-09 00:42:00,45.3,42.3,30.00,WNW,298,7.0,15.0,89,0.00,,---,0.00,VWS V14.01,2013-04-09 04:42:00,
2013-04-09 00:47:00,45.2,42.2,30.00,WNW,285,5.0,15.0,89,0.00,,---,0.00,VWS V14.01,2013-04-09 04:47:00,
2013-04-09 00:53:00,45.2,42.2,30.00,NNW,339,5.0,15.0,89,0.00,,---,0.00,VWS V14.01,2013-04-09 04:53:00,
2013-04-09 00:58:00,45.1,42.1,30.01,NNW,339,4.0,15.0,89,0.00,,---,0.00,VWS V14.01,2013-04-09 04:58:00,
2013-04-09 01:04:00,45.1,42.1,30.01,WNW,300,6.0,7.0,89,0.00,,---,0.00,VWS V14.01,2013-04-09 05:04:00,
2013-04-09 01:09:00,45.0,42.0,30.01,NW,308,5.0,10.0,89,0.00,,---,0.00,VWS V14.01,2013-04-09 05:09:00,
2013-04-09 01:14:00,45.0,42.0,30.01,WNW,301,5.0,10.0,89,0.00,,---,0.00,VWS V14.01,2013-04-09 05:14:00,
2013-04-09 01:19:00,44.9,41.9,30.01,NW,314,6.0,11.0,89,0.00,,---,0.00,VWS V14.01,2013-04-09 05:19:00,
2013-04-09 01:24:00,44.9,41.9,30.02,NW,304,5.0,11.0,89,0.00,,---,0.00,VWS V14.01,2013-04-09 05:24:00,
2013-04-09 01:29:00,44.9,41.9,30.02,NNW,328,4.0,11.0,89,0.00,,---,0.00,VWS V14.01,2013-04-09 05:29:00,
2013-04-09 01:34:00,44.8,41.8,30.02,NW,324,5.0,11.0,89,0.00,,---,0.00,VWS V14.01,2013-04-09 05:34:00,
2013-04-09 01:39:00,44.8,41.8,30.02,NW,326,3.0,11.0,89,0.00,,---,0.00,VWS V14.01,2013-04-09 05:39:00,
2013-04-09 01:44:00,44.7,41.7,30.03,NNW,338,4.0,11.0,89,0.00,,---,0.00,VWS V14.01,2013-04-09 05:44:00,
2013-04-09 01:50:00,44.7,42.0,30.03,NW,304,4.0,11.0,90,0.00,,---,0.00,VWS V14.01,2013-04-09 05:50:00,
2013-04-09 01:55:00,44.6,41.8,30.03,NNW,338,5.0,11.0,90,0.00,,---,0.00,VWS V14.01,2013-04-09 05:55:00,
2013-04-09 02:00:00,44.6,41.8,30.03,WNW,296,4.0,11.0,90,0.00,,---,0.00,VWS V14.01,2013-04-09 06:00:00,
2013-04-09 02:05:00,44.5,41.8,30.03,NNW,330,3.0,4.0,90,0.00,,---,0.00,VWS V14.01,2013-04-09 06:05:00,
2013-04-09 02:10:00,44.5,41.8,30.03,NW,311,2.0,8.0,90,0.00,,---,0.00,VWS V14.01,2013-04-09 06:10:00,
2013-04-09 02:15:00,44.4,41.7,30.03,NNW,328,5.0,8.0,90,0.00,,---,0.00,VWS V14.01,2013-04-09 06:15:00,
2013-04-09 02:20:00,44.4,41.7,30.03,WNW,298,7.0,8.0,90,0.00,,---,0.00,VWS V14.01,2013-04-09 06:20:00,
2013-04-09 02:25:00,44.3,41.8,30.03,NW,312,4.0,8.0,91,0.00,,---,0.00,VWS V14.01,2013-04-09 06:25:00,
2013-04-09 02:30:00,44.3,41.8,30.03,NNW,338,5.0,8.0,91,0.00,,---,0.00,VWS V14.01,2013-04-09 06:30:00,
2013-04-09 02:36:00,44.2,41.7,30.02,NW,320,4.0,8.0,91,0.00,,---,0.00,VWS V14.01,2013-04-09 06:36:00,
2013-04-09 02:41:00,44.2,41.7,30.03,NW,322,2.0,8.0,91,0.00,,---,0.00,VWS V14.01,2013-04-09 06:41:00,
2013-04-09 02:46:00,44.1,41.7,30.03,NNW,330,2.0,8.0,91,0.00,,---,0.00,VWS V14.01,2013-04-09 06:46:00,
2013-04-09 02:52:00,44.1,41.7,30.03,NNW,338,4.0,8.0,91,0.00,,---,0.00,VWS V14.01,2013-04-09 06:52:00,
2013-04-09 02:57:00,44.0,41.8,30.03,NNW,346,2.0,8.0,92,0.00,,---,0.00,VWS V14.01,2013-04-09 06:57:00,
2013-04-09 03:02:00,43.9,41.5,30.03,NNE,20,4.0,7.0,91,0.00,,---,0.00,VWS V14.01,2013-04-09 07:02:00,
2013-04-09 03:07:00,43.7,41.2,30.03,NNW,332,4.0,8.0,91,0.00,,---,0.00,VWS V14.01,2013-04-09 07:07:00,
2013-04-09 03:12:00,43.7,41.2,30.03,NW,312,5.0,11.0,91,0.00,,---,0.00,VWS V14.01,2013-04-09 07:12:00,
2013-04-09 03:18:00,43.6,41.2,30.03,North,350,2.0,11.0,91,0.00,,---,0.00,VWS V14.01,2013-04-09 07:18:00,
2013-04-09 03:23:00,43.5,41.0,30.03,NE,43,4.0,11.0,91,0.00,,---,0.00,VWS V14.01,2013-04-09 07:23:00,
2013-04-09 03:28:00,43.4,41.0,30.03,North,4,3.0,11.0,91,0.00,,---,0.00,VWS V14.01,2013-04-09 07:28:00,
2013-04-09 03:33:00,43.3,40.8,30.03,North,354,2.0,11.0,91,0.00,,---,0.00,VWS V14.01,2013-04-09 07:33:00,
2013-04-09 03:38:00,43.3,40.8,30.03,North,349,4.0,11.0,91,0.00,,---,0.00,VWS V14.01,2013-04-09 07:38:00,
2013-04-09 03:44:00,43.3,40.8,30.03,NNE,26,4.0,11.0,91,0.00,,---,0.00,VWS V14.01,2013-04-09 07:44:00,
2013-04-09 03:49:00,43.3,40.8,30.03,North,360,6.0,11.0,91,0.00,,---,0.00,VWS V14.01,2013-04-09 07:49:00,
2013-04-09 03:54:00,43.3,41.1,30.03,NNE,15,10.0,11.0,92,0.00,,---,0.00,VWS V14.01,2013-04-09 07:54:00,
2013-04-09 03:59:00,43.2,41.0,30.03,North,356,7.0,11.0,92,0.00,,---,0.00,VWS V14.01,2013-04-09 07:59:00,
2013-04-09 04:05:00,43.0,40.8,30.03,NNE,13,4.0,8.0,92,0.00,,---,0.00,VWS V14.01,2013-04-09 08:05:00,
2013-04-09 04:10:00,42.9,40.7,30.04,NNE,25,4.0,8.0,92,0.00,,---,0.00,VWS V14.01,2013-04-09 08:10:00,
2013-04-09 04:15:00,42.7,40.8,30.04,North,9,5.0,8.0,93,0.00,,---,0.00,VWS V14.01,2013-04-09 08:15:00,
2013-04-09 04:20:00,42.5,40.6,30.04,NNW,335,4.0,8.0,93,0.00,,---,0.00,VWS V14.01,2013-04-09 08:20:00,
2013-04-09 04:25:00,42.3,40.4,30.04,NNE,12,5.0,8.0,93,0.00,,---,0.00,VWS V14.01,2013-04-09 08:25:00,
2013-04-09 04:30:00,42.1,40.2,30.04,NE,43,5.0,8.0,93,0.00,,---,0.00,VWS V14.01,2013-04-09 08:30:00,
2013-04-09 04:35:00,41.9,40.0,30.05,NNE,15,2.0,10.0,93,0.00,,---,0.00,VWS V14.01,2013-04-09 08:35:00,
2013-04-09 04:41:00,41.7,40.1,30.04,NNE,25,5.0,10.0,94,0.00,,---,0.00,VWS V14.01,2013-04-09 08:41:00,
2013-04-09 04:46:00,41.5,39.9,30.04,NNE,18,6.0,10.0,94,0.00,,---,0.00,VWS V14.01,2013-04-09 08:46:00,
2013-04-09 04:52:00,41.3,39.7,30.04,NNE,29,3.0,10.0,94,0.00,,---,0.00,VWS V14.01,2013-04-09 08:52:00,
2013-04-09 04:57:00,41.2,39.6,30.04,NE,43,6.0,10.0,94,0.00,,---,0.00,VWS V14.01,2013-04-09 08:57:00,
2013-04-09 05:02:00,41.0,39.4,30.05,NE,45,6.0,7.0,94,0.00,,---,0.00,VWS V14.01,2013-04-09 09:02:00,
2013-04-09 05:07:00,40.7,39.1,30.05,NNE,26,2.0,7.0,94,0.00,,---,0.00,VWS V14.01,2013-04-09 09:07:00,
2013-04-09 05:12:00,40.7,39.4,30.05,NE,34,2.0,7.0,95,0.00,,---,0.00,VWS V14.01,2013-04-09 09:12:00,
2013-04-09 05:17:00,40.6,39.3,30.05,NE,44,2.0,8.0,95,0.00,,---,0.00,VWS V14.01,2013-04-09 09:17:00,
2013-04-09 05:22:00,40.5,39.2,30.06,North,349,2.0,8.0,95,0.00,,---,0.00,VWS V14.01,2013-04-09 09:22:00,
2013-04-09 05:27:00,40.4,39.1,30.06,NNW,336,2.0,8.0,95,0.00,,---,0.00,VWS V14.01,2013-04-09 09:27:00,
2013-04-09 05:32:00,40.3,39.0,30.06,NE,37,3.0,8.0,95,0.00,,---,0.00,VWS V14.01,2013-04-09 09:32:00,
2013-04-09 05:38:00,40.2,38.9,30.06,NE,49,2.0,8.0,95,0.00,,---,0.00,VWS V14.01,2013-04-09 09:38:00,
2013-04-09 05:43:00,40.1,38.8,30.06,ENE,59,0.0,8.0,95,0.00,,---,0.00,VWS V14.01,2013-04-09 09:43:00,
2013-04-09 05:48:00,40.2,38.9,30.07,SE,129,1.0,8.0,95,0.00,,---,0.00,VWS V14.01,2013-04-09 09:48:00,
2013-04-09 05:53:00,40.2,39.2,30.07,SSE,153,1.0,8.0,96,0.00,,---,0.00,VWS V14.01,2013-04-09 09:53:00,
2013-04-09 05:58:00,40.2,39.2,30.08,ENE,75,2.0,8.0,96,0.00,,---,0.00,VWS V14.01,2013-04-09 09:58:00,
2013-04-09 06:03:00,40.2,39.2,30.08,East,82,0.0,0.0,96,0.00,,---,0.00,VWS V14.01,2013-04-09 10:03:00,
2013-04-09 06:08:00,40.2,39.2,30.08,East,82,0.0,1.0,96,0.00,,---,0.00,VWS V14.01,2013-04-09 10:08:00,
2013-04-09 06:13:00,40.2,39.2,30.08,East,79,1.0,2.0,96,0.00,,---,0.00,VWS V14.01,2013-04-09 10:13:00,
2013-04-09 06:18:00,40.2,39.2,30.09,SSE,152,4.0,5.0,96,0.00,,---,0.00,VWS V14.01,2013-04-09 10:18:00,
2013-04-09 06:23:00,40.2,39.2,30.09,ESE,112,1.0,5.0,96,0.00,,---,0.00,VWS V14.01,2013-04-09 10:23:00,
2013-04-09 06:28:00,40.1,39.0,30.08,East,91,2.0,5.0,96,0.00,,---,0.00,VWS V14.01,2013-04-09 10:28:00,
2013-04-09 06:33:00,40.1,39.0,30.08,ESE,120,1.0,5.0,96,0.00,,---,0.00,VWS V14.01,2013-04-09 10:33:00,
2013-04-09 06:39:00,40.0,39.0,30.08,ESE,104,3.0,5.0,96,0.00,,---,0.00,VWS V14.01,2013-04-09 10:39:00,
2013-04-09 06:44:00,40.1,39.0,30.08,ESE,115,2.0,5.0,96,0.00,,---,0.00,VWS V14.01,2013-04-09 10:44:00,
2013-04-09 06:49:00,40.1,39.0,30.08,SE,138,2.0,5.0,96,0.00,,---,0.00,VWS V14.01,2013-04-09 10:49:00,
2013-04-09 06:54:00,40.0,39.0,30.08,ESE,111,1.0,5.0,96,0.00,,---,0.00,VWS V14.01,2013-04-09 10:54:00,
2013-04-09 06:59:00,40.1,39.0,30.07,ENE,73,4.0,5.0,96,0.00,,---,0.00,VWS V14.01,2013-04-09 10:59:00,
2013-04-09 07:04:00,40.0,39.0,30.07,ENE,78,2.0,3.0,96,0.00,,---,0.00,VWS V14.01,2013-04-09 11:04:00,
2013-04-09 07:09:00,40.0,39.0,30.07,East,88,2.0,4.0,96,0.00,,---,0.00,VWS V14.01,2013-04-09 11:09:00,
2013-04-09 07:14:00,40.0,39.0,30.07,East,85,2.0,4.0,96,0.00,,---,0.00,VWS V14.01,2013-04-09 11:14:00,
2013-04-09 07:19:00,40.0,39.0,30.07,East,83,3.0,5.0,96,0.00,,---,0.00,VWS V14.01,2013-04-09 11:19:00,
2013-04-09 07:25:00,40.0,39.0,30.07,East,86,2.0,6.0,96,0.00,,---,0.00,VWS V14.01,2013-04-09 11:25:00,
2013-04-09 07:30:00,39.9,38.8,30.07,ESE,114,3.0,6.0,96,0.00,,---,0.00,VWS V14.01,2013-04-09 11:30:00,
2013-04-09 07:35:00,40.0,39.0,30.07,ESE,103,2.0,6.0,96,0.00,,---,0.00,VWS V14.01,2013-04-09 11:35:00,
2013-04-09 07:40:00,40.0,39.0,30.07,East,98,2.0,6.0,96,0.00,,---,0.00,VWS V14.01,2013-04-09 11:40:00,
2013-04-09 07:45:00,39.9,38.8,30.07,East,81,2.0,7.0,96,0.00,,---,0.00,VWS V14.01,2013-04-09 11:45:00,
2013-04-09 07:50:00,39.9,38.8,30.07,ESE,110,4.0,7.0,96,0.00,,---,0.00,VWS V14.01,2013-04-09 11:50:00,
2013-04-09 07:55:00,39.9,38.8,30.07,East,96,4.0,7.0,96,0.00,,---,0.00,VWS V14.01,2013-04-09 11:55:00,
2013-04-09 08:00:00,40.0,39.2,30.08,ESE,108,3.0,7.0,97,0.00,,---,0.00,VWS V14.01,2013-04-09 12:00:00,
2013-04-09 08:05:00,40.0,39.2,30.08,East,89,6.0,7.0,97,0.00,,---,0.00,VWS V14.01,2013-04-09 12:05:00,
2013-04-09 08:11:00,40.0,39.2,30.08,ESE,105,4.0,8.0,97,0.00,,---,0.00,VWS V14.01,2013-04-09 12:11:00,
2013-04-09 08:16:00,40.1,39.3,30.08,ESE,121,2.0,8.0,97,0.00,,---,0.00,VWS V14.01,2013-04-09 12:16:00,
2013-04-09 08:21:00,40.2,39.4,30.08,East,89,3.0,8.0,97,0.00,,---,0.00,VWS V14.01,2013-04-09 12:21:00,
2013-04-09 08:26:00,40.3,39.5,30.08,SE,124,2.0,8.0,97,0.00,,---,0.00,VWS V14.01,2013-04-09 12:26:00,
2013-04-09 08:31:00,40.4,39.6,30.08,East,93,3.0,8.0,97,0.00,,---,0.00,VWS V14.01,2013-04-09 12:31:00,
2013-04-09 08:37:00,40.5,39.7,30.08,SSE,153,3.0,8.0,97,0.00,,---,0.00,VWS V14.01,2013-04-09 12:37:00,
2013-04-09 08:42:00,40.6,39.8,30.08,ESE,102,3.0,9.0,97,0.00,,---,0.00,VWS V14.01,2013-04-09 12:42:00,
2013-04-09 08:47:00,40.8,40.0,30.08,East,99,3.0,9.0,97,0.00,,---,0.00,VWS V14.01,2013-04-09 12:47:00,
2013-04-09 08:52:00,40.9,40.1,30.07,ESE,115,2.0,9.0,97,0.00,,---,0.00,VWS V14.01,2013-04-09 12:52:00,
2013-04-09 08:57:00,41.0,40.2,30.06,East,84,2.0,9.0,97,0.00,,---,0.00,VWS V14.01,2013-04-09 12:57:00,
2013-04-09 09:02:00,41.1,40.3,30.07,SSE,153,6.0,7.0,97,0.00,,---,0.00,VWS V14.01,2013-04-09 13:02:00,
2013-04-09 09:07:00,41.2,40.4,30.06,ESE,103,4.0,8.0,97,0.00,,---,0.00,VWS V14.01,2013-04-09 13:07:00,
2013-04-09 09:12:00,41.3,40.5,30.07,ESE,120,6.0,12.0,97,0.00,,---,0.00,VWS V14.01,2013-04-09 13:12:00,
2013-04-09 09:17:00,41.5,40.5,30.07,ESE,121,9.0,12.0,96,0.00,,---,0.00,VWS V14.01,2013-04-09 13:17:00,
2013-04-09 09:22:00,41.7,40.7,30.06,ESE,115,3.0,12.0,96,0.00,,---,0.00,VWS V14.01,2013-04-09 13:22:00,
2013-04-09 09:28:00,41.9,40.8,30.06,East,83,5.0,12.0,96,0.00,,---,0.00,VWS V14.01,2013-04-09 13:28:00,
2013-04-09 09:33:00,42.2,41.1,30.06,ESE,115,7.0,12.0,96,0.00,,---,0.00,VWS V14.01,2013-04-09 13:33:00,
2013-04-09 09:38:00,42.3,41.0,30.06,ESE,121,7.0,12.0,95,0.00,,---,0.00,VWS V14.01,2013-04-09 13:38:00,
2013-04-09 09:43:00,42.4,41.1,30.06,East,96,6.0,12.0,95,0.00,,---,0.00,VWS V14.01,2013-04-09 13:43:00,
2013-04-09 09:48:00,42.6,41.0,30.05,East,85,4.0,12.0,94,0.00,,---,0.00,VWS V14.01,2013-04-09 13:48:00,
2013-04-09 09:53:00,42.9,41.3,30.04,ESE,112,5.0,12.0,94,0.00,,---,0.00,VWS V14.01,2013-04-09 13:53:00,
2013-04-09 09:58:00,43.4,41.8,30.04,ESE,110,6.0,12.0,94,0.00,,---,0.00,VWS V14.01,2013-04-09 13:58:00,
2013-04-09 10:03:00,43.7,41.8,30.04,East,99,6.0,8.0,93,0.00,,---,0.00,VWS V14.01,2013-04-09 14:03:00,
2013-04-09 10:09:00,44.4,42.2,30.04,East,96,3.0,12.0,92,0.00,,---,0.00,VWS V14.01,2013-04-09 14:09:00,
2013-04-09 10:14:00,44.8,42.0,30.05,East,92,9.0,12.0,90,0.00,,---,0.00,VWS V14.01,2013-04-09 14:14:00,
2013-04-09 10:19:00,45.4,42.3,30.05,SE,125,8.0,12.0,89,0.00,,---,0.00,VWS V14.01,2013-04-09 14:19:00,
2013-04-09 10:24:00,46.0,43.0,30.05,SSE,152,6.0,12.0,89,0.00,,---,0.00,VWS V14.01,2013-04-09 14:24:00,
2013-04-09 10:29:00,46.9,43.5,30.05,ESE,111,1.0,12.0,88,0.00,,---,0.00,VWS V14.01,2013-04-09 14:29:00,
2013-04-09 10:34:00,47.3,43.3,30.05,SE,136,5.0,12.0,86,0.00,,---,0.00,VWS V14.01,2013-04-09 14:34:00,
2013-04-09 10:39:00,47.6,43.0,30.05,SSE,148,4.0,12.0,84,0.00,,---,0.00,VWS V14.01,2013-04-09 14:39:00,
2013-04-09 10:44:00,47.9,43.0,30.05,ESE,103,9.0,12.0,83,0.00,,---,0.00,VWS V14.01,2013-04-09 14:44:00,
2013-04-09 10:50:00,48.3,43.4,30.06,SSE,153,10.0,13.0,83,0.00,,---,0.00,VWS V14.01,2013-04-09 14:50:00,
2013-04-09 10:55:00,48.4,43.2,30.06,SSE,162,8.0,13.0,82,0.00,,---,0.00,VWS V14.01,2013-04-09 14:55:00,
2013-04-09 11:00:00,48.7,43.5,30.06,ESE,114,7.0,13.0,82,0.00,,---,0.00,VWS V14.01,2013-04-09 15:00:00,
2013-04-09 11:05:00,48.9,43.3,30.06,SSE,155,11.0,17.0,81,0.00,,---,0.00,VWS V14.01,2013-04-09 15:05:00,
2013-04-09 11:10:00,48.8,42.9,30.07,SSE,152,6.0,17.0,80,0.00,,---,0.00,VWS V14.01,2013-04-09 15:10:00,
2013-04-09 11:15:00,48.8,43.2,30.06,ESE,120,11.0,17.0,81,0.00,,---,0.00,VWS V14.01,2013-04-09 15:15:00,
2013-04-09 11:20:00,48.8,43.2,30.06,ESE,117,14.0,17.0,81,0.00,,---,0.00,VWS V14.01,2013-04-09 15:20:00,
2013-04-09 11:25:00,48.6,43.0,30.06,SE,128,9.0,17.0,81,0.00,,---,0.00,VWS V14.01,2013-04-09 15:25:00,
2013-04-09 11:30:00,48.4,42.8,30.05,SSE,155,6.0,17.0,81,0.00,,---,0.00,VWS V14.01,2013-04-09 15:30:00,
2013-04-09 11:35:00,48.4,43.2,30.05,South,177,6.0,17.0,82,0.00,,---,0.00,VWS V14.01,2013-04-09 15:35:00,
2013-04-09 11:41:00,48.4,42.8,30.06,SSE,167,6.0,17.0,81,0.00,,---,0.00,VWS V14.01,2013-04-09 15:41:00,
2013-04-09 11:46:00,48.3,42.8,30.06,SE,140,10.0,17.0,81,0.00,,---,0.00,VWS V14.01,2013-04-09 15:46:00,
2013-04-09 11:51:00,48.3,43.1,30.06,SE,129,11.0,17.0,82,0.00,,---,0.00,VWS V14.01,2013-04-09 15:51:00,
2013-04-09 11:56:00,48.2,43.0,30.03,East,86,8.0,17.0,82,0.00,,---,0.00,VWS V14.01,2013-04-09 15:56:00,
2013-04-09 12:01:00,47.8,43.2,30.02,SSE,157,2.0,17.0,84,0.00,,---,0.00,VWS V14.01,2013-04-09 16:01:00,
2013-04-09 12:06:00,47.6,43.3,30.01,ENE,64,5.0,8.0,85,0.01,,---,0.01,VWS V14.01,2013-04-09 16:06:00,
2013-04-09 12:11:00,47.3,43.3,30.02,East,83,9.0,11.0,86,0.02,,---,0.02,VWS V14.01,2013-04-09 16:11:00,
2013-04-09 12:17:00,47.1,43.1,30.02,SE,127,7.0,13.0,86,0.02,,---,0.02,VWS V14.01,2013-04-09 16:17:00,
2013-04-09 12:22:00,46.9,43.2,30.01,ESE,122,6.0,13.0,87,0.02,,---,0.02,VWS V14.01,2013-04-09 16:22:00,
2013-04-09 12:27:00,46.9,43.2,30.01,East,94,6.0,13.0,87,0.02,,---,0.02,VWS V14.01,2013-04-09 16:27:00,
2013-04-09 12:32:00,46.8,43.4,30.01,SSE,154,4.0,13.0,88,0.02,,---,0.02,VWS V14.01,2013-04-09 16:32:00,
2013-04-09 12:37:00,46.7,43.3,30.01,SE,124,9.0,13.0,88,0.02,,---,0.02,VWS V14.01,2013-04-09 16:37:00,
2013-04-09 12:42:00,46.6,43.2,30.01,SE,127,8.0,13.0,88,0.02,,---,0.02,VWS V14.01,2013-04-09 16:42:00,
2013-04-09 12:47:00,46.5,43.1,30.00,East,96,6.0,13.0,88,0.02,,---,0.02,VWS V14.01,2013-04-09 16:47:00,
2013-04-09 12:52:00,46.5,43.1,30.00,SE,138,5.0,13.0,88,0.02,,---,0.02,VWS V14.01,2013-04-09 16:52:00,
2013-04-09 12:58:00,46.4,43.0,30.01,SSE,149,3.0,13.0,88,0.02,,---,0.02,VWS V14.01,2013-04-09 16:58:00,
2013-04-09 13:03:00,46.4,43.0,30.00,ESE,117,3.0,7.0,88,0.02,,---,0.02,VWS V14.01,2013-04-09 17:03:00,
2013-04-09 13:08:00,46.3,43.0,30.00,ESE,113,5.0,9.0,88,0.02,,---,0.02,VWS V14.01,2013-04-09 17:08:00,
2013-04-09 13:14:00,46.4,43.0,30.00,ESE,110,6.0,9.0,88,0.03,,---,0.03,VWS V14.01,2013-04-09 17:14:00,
2013-04-09 13:19:00,46.4,43.0,30.00,SE,124,4.0,9.0,88,0.03,,---,0.03,VWS V14.01,2013-04-09 17:19:00,
2013-04-09 13:24:00,46.4,43.0,29.99,East,86,4.0,9.0,88,0.03,,---,0.03,VWS V14.01,2013-04-09 17:24:00,
2013-04-09 13:29:00,46.5,43.1,29.99,ESE,102,6.0,9.0,88,0.03,,---,0.03,VWS V14.01,2013-04-09 17:29:00,
2013-04-09 13:34:00,46.5,43.1,29.99,East,92,4.0,9.0,88,0.03,,---,0.03,VWS V14.01,2013-04-09 17:34:00,
2013-04-09 13:40:00,46.5,43.1,29.98,East,101,1.0,9.0,88,0.03,,---,0.03,VWS V14.01,2013-04-09 17:40:00,
2013-04-09 13:45:00,46.6,43.2,29.98,East,82,4.0,9.0,88,0.03,,---,0.03,VWS V14.01,2013-04-09 17:45:00,
2013-04-09 13:50:00,46.7,43.3,29.97,ESE,117,5.0,9.0,88,0.03,,---,0.03,VWS V14.01,2013-04-09 17:50:00,
2013-04-09 13:55:00,46.8,43.4,29.97,ESE,119,2.0,9.0,88,0.03,,---,0.03,VWS V14.01,2013-04-09 17:55:00,
2013-04-09 14:00:00,46.9,43.5,29.97,ENE,69,3.0,9.0,88,0.03,,---,0.03,VWS V14.01,2013-04-09 18:00:00,
2013-04-09 14:05:00,47.1,43.7,29.97,East,99,7.0,9.0,88,0.01,,---,0.03,VWS V14.01,2013-04-09 18:05:00,
2013-04-09 14:10:00,47.2,43.5,29.95,ESE,104,7.0,10.0,87,0.01,,---,0.03,VWS V14.01,2013-04-09 18:10:00,
2013-04-09 14:15:00,47.4,43.7,29.95,ESE,111,6.0,10.0,87,0.01,,---,0.03,VWS V14.01,2013-04-09 18:15:00,
2013-04-09 14:21:00,47.6,43.6,29.95,ENE,75,9.0,10.0,86,0.01,,---,0.03,VWS V14.01,2013-04-09 18:21:00,
2013-04-09 14:26:00,47.8,43.8,29.94,ESE,114,4.0,12.0,86,0.01,,---,0.03,VWS V14.01,2013-04-09 18:26:00,
2013-04-09 14:31:00,48.0,44.0,29.93,East,99,7.0,12.0,86,0.01,,---,0.03,VWS V14.01,2013-04-09 18:31:00,
2013-04-09 14:36:00,48.2,43.9,29.93,East,101,9.0,12.0,85,0.01,,---,0.03,VWS V14.01,2013-04-09 18:36:00,
2013-04-09 14:41:00,48.4,44.1,29.93,SE,138,5.0,12.0,85,0.01,,---,0.03,VWS V14.01,2013-04-09 18:41:00,
2013-04-09 14:46:00,48.5,44.2,29.93,SE,131,6.0,12.0,85,0.01,,---,0.03,VWS V14.01,2013-04-09 18:46:00,
2013-04-09 14:51:00,48.7,44.4,29.93,East,101,1.0,12.0,85,0.01,,---,0.03,VWS V14.01,2013-04-09 18:51:00,
2013-04-09 14:56:00,48.8,44.5,29.93,ESE,103,6.0,12.0,85,0.01,,---,0.03,VWS V14.01,2013-04-09 18:56:00,
2013-04-09 15:02:00,48.9,44.3,29.92,SE,135,3.0,12.0,84,0.01,,---,0.03,VWS V14.01,2013-04-09 19:02:00,
2013-04-09 15:07:00,49.0,44.4,29.92,ESE,110,6.0,10.0,84,0.00,,---,0.03,VWS V14.01,2013-04-09 19:07:00,
2013-04-09 15:12:00,49.1,44.5,29.92,SE,136,5.0,12.0,84,0.00,,---,0.03,VWS V14.01,2013-04-09 19:12:00,
2013-04-09 15:17:00,49.1,44.5,29.91,SE,127,9.0,12.0,84,0.00,,---,0.03,VWS V14.01,2013-04-09 19:17:00,
2013-04-09 15:22:00,49.1,44.5,29.91,SSE,150,5.0,12.0,84,0.00,,---,0.03,VWS V14.01,2013-04-09 19:22:00,
2013-04-09 15:27:00,49.3,44.7,29.91,East,91,2.0,12.0,84,0.00,,---,0.03,VWS V14.01,2013-04-09 19:27:00,
2013-04-09 15:32:00,49.4,44.8,29.92,ESE,110,2.0,12.0,84,0.00,,---,0.03,VWS V14.01,2013-04-09 19:32:00,
2013-04-09 15:37:00,49.6,45.0,29.92,ESE,115,1.0,12.0,84,0.00,,---,0.03,VWS V14.01,2013-04-09 19:37:00,
2013-04-09 15:43:00,49.8,44.8,29.92,SE,134,1.0,12.0,83,0.00,,---,0.03,VWS V14.01,2013-04-09 19:43:00,
2013-04-09 15:48:00,50.0,45.0,29.92,East,94,5.0,12.0,83,0.00,,---,0.03,VWS V14.01,2013-04-09 19:48:00,
2013-04-09 15:53:00,50.2,45.2,29.92,ESE,113,2.0,12.0,83,0.00,,---,0.03,VWS V14.01,2013-04-09 19:53:00,
2013-04-09 15:58:00,50.5,45.5,29.92,NNE,19,0.0,12.0,83,0.00,,---,0.03,VWS V14.01,2013-04-09 19:58:00,
2013-04-09 16:03:00,50.8,45.5,29.93,WNW,283,1.0,2.0,82,0.00,,---,0.03,VWS V14.01,2013-04-09 20:03:00,
2013-04-09 16:08:00,50.9,45.6,29.93,North,358,3.0,4.0,82,0.00,,---,0.03,VWS V14.01,2013-04-09 20:08:00,
2013-04-09 16:13:00,51.0,45.7,29.93,NNW,338,3.0,5.0,82,0.00,,---,0.03,VWS V14.01,2013-04-09 20:13:00,
2013-04-09 16:18:00,51.0,45.7,29.92,NNE,15,4.0,5.0,82,0.00,,---,0.03,VWS V14.01,2013-04-09 20:18:00,
2013-04-09 16:23:00,51.0,46.0,29.92,NE,43,5.0,5.0,83,0.00,,---,0.03,VWS V14.01,2013-04-09 20:23:00,
2013-04-09 16:29:00,50.7,45.7,29.91,NE,43,6.0,6.0,83,0.00,,---,0.03,VWS V14.01,2013-04-09 20:29:00,
2013-04-09 16:34:00,50.4,45.4,29.91,NE,44,3.0,7.0,83,0.00,,---,0.03,VWS V14.01,2013-04-09 20:34:00,
2013-04-09 16:39:00,50.2,45.6,29.90,NNE,32,4.0,7.0,84,0.00,,---,0.03,VWS V14.01,2013-04-09 20:39:00,
2013-04-09 16:44:00,50.1,45.5,29.90,NE,51,4.0,7.0,84,0.00,,---,0.03,VWS V14.01,2013-04-09 20:44:00,
2013-04-09 16:49:00,50.0,45.7,29.90,NE,53,3.0,7.0,85,0.00,,---,0.03,VWS V14.01,2013-04-09 20:49:00,
2013-04-09 16:54:00,49.7,45.4,29.89,NE,41,6.0,7.0,85,0.00,,---,0.03,VWS V14.01,2013-04-09 20:54:00,
2013-04-09 16:59:00,49.6,45.3,29.90,NE,53,4.0,7.0,85,0.00,,---,0.03,VWS V14.01,2013-04-09 20:59:00,
2013-04-09 17:04:00,49.5,45.5,29.89,NE,49,6.0,7.0,86,0.00,,---,0.03,VWS V14.01,2013-04-09 21:04:00,
2013-04-09 17:09:00,49.3,45.3,29.90,ENE,61,7.0,9.0,86,0.00,,---,0.03,VWS V14.01,2013-04-09 21:09:00,
2013-04-09 17:15:00,49.1,45.4,29.89,East,87,6.0,9.0,87,0.00,,---,0.03,VWS V14.01,2013-04-09 21:15:00,
2013-04-09 17:20:00,48.9,45.2,29.89,ENE,57,4.0,9.0,87,0.00,,---,0.03,VWS V14.01,2013-04-09 21:20:00,
2013-04-09 17:25:00,48.5,45.1,29.89,ENE,63,4.0,9.0,88,0.01,,---,0.04,VWS V14.01,2013-04-09 21:25:00,
2013-04-09 17:30:00,48.2,45.1,29.88,ENE,63,6.0,9.0,89,0.02,,---,0.05,VWS V14.01,2013-04-09 21:30:00,
2013-04-09 17:35:00,48.0,44.9,29.88,ENE,74,3.0,9.0,89,0.02,,---,0.05,VWS V14.01,2013-04-09 21:35:00,
2013-04-09 17:40:00,47.8,45.0,29.88,ENE,63,3.0,9.0,90,0.02,,---,0.05,VWS V14.01,2013-04-09 21:40:00,
2013-04-09 17:45:00,47.7,44.9,29.88,East,94,3.0,9.0,90,0.02,,---,0.05,VWS V14.01,2013-04-09 21:45:00,
2013-04-09 17:50:00,47.5,45.0,29.88,ENE,57,4.0,9.0,91,0.02,,---,0.05,VWS V14.01,2013-04-09 21:50:00,
2013-04-09 17:55:00,47.4,44.9,29.88,ENE,65,4.0,9.0,91,0.02,,---,0.05,VWS V14.01,2013-04-09 21:55:00,
2013-04-09 18:01:00,47.3,44.8,29.88,ENE,63,7.0,9.0,91,0.03,,---,0.06,VWS V14.01,2013-04-09 22:01:00,
2013-04-09 18:06:00,47.1,44.6,29.88,East,91,2.0,7.0,91,0.03,,---,0.06,VWS V14.01,2013-04-09 22:06:00,
2013-04-09 18:11:00,47.1,44.9,29.88,East,80,2.0,7.0,92,0.03,,---,0.06,VWS V14.01,2013-04-09 22:11:00,
2013-04-09 18:16:00,47.1,44.9,29.89,NNW,342,4.0,7.0,92,0.03,,---,0.06,VWS V14.01,2013-04-09 22:16:00,
2013-04-09 18:21:00,47.1,44.9,29.89,East,79,2.0,7.0,92,0.03,,---,0.06,VWS V14.01,2013-04-09 22:21:00,
2013-04-09 18:26:00,47.1,44.9,29.89,ESE,103,3.0,7.0,92,0.03,,---,0.06,VWS V14.01,2013-04-09 22:26:00,
2013-04-09 18:32:00,47.0,44.8,29.89,East,96,2.0,7.0,92,0.03,,---,0.06,VWS V14.01,2013-04-09 22:32:00,
2013-04-09 18:37:00,47.0,44.8,29.89,ESE,107,5.0,7.0,92,0.03,,---,0.06,VWS V14.01,2013-04-09 22:37:00,
2013-04-09 18:42:00,46.9,44.7,29.89,East,84,3.0,7.0,92,0.04,,---,0.07,VWS V14.01,2013-04-09 22:42:00,
2013-04-09 18:47:00,46.9,44.7,29.90,NNE,12,3.0,7.0,92,0.04,,---,0.07,VWS V14.01,2013-04-09 22:47:00,
2013-04-09 18:52:00,46.9,45.0,29.92,North,352,7.0,7.0,93,0.04,,---,0.07,VWS V14.01,2013-04-09 22:52:00,
2013-04-09 18:57:00,46.6,44.7,29.92,NE,49,2.0,12.0,93,0.04,,---,0.07,VWS V14.01,2013-04-09 22:57:00,
2013-04-09 19:02:00,46.3,44.4,29.91,NE,46,5.0,7.0,93,0.01,,---,0.07,VWS V14.01,2013-04-09 23:02:00,
2013-04-09 19:07:00,46.2,44.3,29.92,NNE,25,2.0,7.0,93,0.01,,---,0.07,VWS V14.01,2013-04-09 23:07:00,
2013-04-09 19:12:00,46.1,44.2,29.90,ESE,118,4.0,7.0,93,0.02,,---,0.08,VWS V14.01,2013-04-09 23:12:00,
2013-04-09 19:17:00,46.0,44.4,29.90,ENE,65,5.0,7.0,94,0.02,,---,0.08,VWS V14.01,2013-04-09 23:17:00,
2013-04-09 19:23:00,46.0,44.4,29.89,ESE,102,4.0,7.0,94,0.02,,---,0.08,VWS V14.01,2013-04-09 23:23:00,
2013-04-09 19:28:00,45.9,44.3,29.88,ESE,115,8.0,9.0,94,0.02,,---,0.08,VWS V14.01,2013-04-09 23:28:00,
2013-04-09 19:33:00,45.8,44.2,29.88,ENE,64,2.0,9.0,94,0.02,,---,0.08,VWS V14.01,2013-04-09 23:33:00,
2013-04-09 19:38:00,45.8,44.2,29.90,North,8,7.0,9.0,94,0.02,,---,0.08,VWS V14.01,2013-04-09 23:38:00,
2013-04-09 19:43:00,45.8,44.2,29.90,NE,39,3.0,9.0,94,0.02,,---,0.08,VWS V14.01,2013-04-09 23:43:00,
2013-04-09 19:48:00,45.7,44.3,29.89,ENE,74,2.0,9.0,95,0.02,,---,0.08,VWS V14.01,2013-04-09 23:48:00,
2013-04-09 19:53:00,45.7,44.3,29.89,ESE,110,3.0,9.0,95,0.02,,---,0.08,VWS V14.01,2013-04-09 23:53:00,
2013-04-09 19:58:00,45.6,44.2,29.88,NE,39,2.0,9.0,95,0.02,,---,0.08,VWS V14.01,2013-04-09 23:58:00,
2013-04-09 20:04:00,45.6,44.2,29.90,NNE,32,4.0,7.0,95,0.01,,---,0.08,VWS V14.01,2013-04-10 00:04:00,
2013-04-09 20:09:00,45.5,44.2,29.88,SE,129,3.0,7.0,95,0.01,,---,0.08,VWS V14.01,2013-04-10 00:09:00,
2013-04-09 20:14:00,45.5,44.2,29.90,NNW,348,3.0,7.0,95,0.01,,---,0.08,VWS V14.01,2013-04-10 00:14:00,
2013-04-09 20:19:00,45.5,44.2,29.90,North,349,4.0,7.0,95,0.01,,---,0.08,VWS V14.01,2013-04-10 00:19:00,
2013-04-09 20:24:00,45.5,44.2,29.91,North,3,5.0,7.0,95,0.01,,---,0.08,VWS V14.01,2013-04-10 00:24:00,
2013-04-09 20:29:00,45.4,44.0,29.93,NNW,338,4.0,12.0,95,0.01,,---,0.08,VWS V14.01,2013-04-10 00:29:00,
2013-04-09 20:34:00,45.3,44.0,29.92,NNE,15,9.0,12.0,95,0.01,,---,0.08,VWS V14.01,2013-04-10 00:34:00,
2013-04-09 20:40:00,45.4,44.0,29.93,NE,37,6.0,12.0,95,0.01,,---,0.08,VWS V14.01,2013-04-10 00:40:00,
2013-04-09 20:45:00,45.4,44.0,29.94,NNE,12,8.0,12.0,95,0.01,,---,0.08,VWS V14.01,2013-04-10 00:45:00,
2013-04-09 20:50:00,45.4,44.0,29.90,SE,139,9.0,12.0,95,0.20,,---,0.27,VWS V14.01,2013-04-10 00:50:00,
2013-04-09 20:55:00,45.5,44.4,29.93,NNW,340,5.0,12.0,96,0.42,,---,0.49,VWS V14.01,2013-04-10 00:55:00,
2013-04-09 21:00:00,45.4,44.3,29.90,NE,43,7.0,12.0,96,0.70,,---,0.77,VWS V14.01,2013-04-10 01:00:00,
2013-04-09 21:05:00,45.4,44.3,29.93,NNE,29,7.0,8.0,96,0.72,,---,0.80,VWS V14.01,2013-04-10 01:05:00,
2013-04-09 21:10:00,45.3,44.2,29.94,NE,37,5.0,13.0,96,0.74,,---,0.82,VWS V14.01,2013-04-10 01:10:00,
2013-04-09 21:15:00,45.2,44.1,29.93,NE,46,6.0,15.0,96,0.79,,---,0.87,VWS V14.01,2013-04-10 01:15:00,
2013-04-09 21:20:00,45.1,44.0,29.94,East,81,6.0,15.0,96,0.80,,---,0.88,VWS V14.01,2013-04-10 01:20:00,
2013-04-09 21:26:00,45.2,44.1,29.94,NNW,346,4.0,15.0,96,0.80,,---,0.88,VWS V14.01,2013-04-10 01:26:00,
2013-04-09 21:31:00,45.3,44.2,29.94,NE,51,7.0,15.0,96,0.80,,---,0.88,VWS V14.01,2013-04-10 01:31:00,
2013-04-09 21:36:00,45.5,44.4,29.94,NNE,25,6.0,15.0,96,0.80,,---,0.88,VWS V14.01,2013-04-10 01:36:00,
2013-04-09 21:41:00,45.5,44.4,29.95,North,8,5.0,15.0,96,0.80,,---,0.88,VWS V14.01,2013-04-10 01:41:00,
2013-04-09 21:46:00,45.6,44.8,29.99,WNW,283,4.0,15.0,97,0.80,,---,0.88,VWS V14.01,2013-04-10 01:46:00,
2013-04-09 21:51:00,45.6,44.5,29.96,NE,47,5.0,15.0,96,0.80,,---,0.88,VWS V14.01,2013-04-10 01:51:00,
2013-04-09 21:57:00,45.5,44.4,29.97,NNW,340,10.0,15.0,96,0.80,,---,0.88,VWS V14.01,2013-04-10 01:57:00,
2013-04-09 22:02:00,45.5,44.4,29.97,NNW,338,7.0,15.0,96,0.81,,---,0.89,VWS V14.01,2013-04-10 02:02:00,
2013-04-09 22:07:00,45.4,44.3,29.96,ENE,60,6.0,8.0,96,0.11,,---,0.89,VWS V14.01,2013-04-10 02:07:00,
2013-04-09 22:12:00,45.4,44.3,29.96,NE,48,5.0,9.0,96,0.11,,---,0.89,VWS V14.01,2013-04-10 02:12:00,
2013-04-09 22:17:00,45.3,44.2,29.95,ENE,68,4.0,9.0,96,0.11,,---,0.89,VWS V14.01,2013-04-10 02:17:00,
2013-04-09 22:22:00,45.4,44.3,29.96,NE,35,2.0,9.0,96,0.11,,---,0.89,VWS V14.01,2013-04-10 02:22:00,
2013-04-09 22:27:00,45.4,44.3,29.95,NE,48,4.0,9.0,96,0.11,,---,0.89,VWS V14.01,2013-04-10 02:27:00,
2013-04-09 22:32:00,45.4,44.3,29.96,NNE,25,4.0,9.0,96,0.11,,---,0.89,VWS V14.01,2013-04-10 02:32:00,
2013-04-09 22:37:00,45.4,44.6,29.97,NNW,347,2.0,9.0,97,0.11,,---,0.89,VWS V14.01,2013-04-10 02:37:00,
2013-04-09 22:43:00,45.3,44.2,29.97,North,352,5.0,9.0,96,0.11,,---,0.89,VWS V14.01,2013-04-10 02:43:00,
2013-04-09 22:48:00,45.3,44.5,29.97,North,11,3.0,9.0,97,0.11,,---,0.89,VWS V14.01,2013-04-10 02:48:00,
2013-04-09 22:53:00,45.3,44.5,29.97,NE,48,4.0,9.0,97,0.11,,---,0.89,VWS V14.01,2013-04-10 02:53:00,
2013-04-09 22:58:00,45.2,44.1,29.97,NE,50,7.0,9.0,96,0.11,,---,0.89,VWS V14.01,2013-04-10 02:58:00,
2013-04-09 23:03:00,45.1,44.0,29.97,North,11,7.0,8.0,96,0.00,,---,0.89,VWS V14.01,2013-04-10 03:03:00,
2013-04-09 23:08:00,45.0,43.9,29.97,NE,36,4.0,8.0,96,0.00,,---,0.89,VWS V14.01,2013-04-10 03:08:00,
2013-04-09 23:13:00,44.9,43.8,29.97,NNE,13,3.0,11.0,96,0.00,,---,0.89,VWS V14.01,2013-04-10 03:13:00,
2013-04-09 23:18:00,44.8,43.7,29.98,NE,36,3.0,11.0,96,0.00,,---,0.89,VWS V14.01,2013-04-10 03:18:00,
2013-04-09 23:23:00,44.7,43.6,29.98,NNE,26,7.0,11.0,96,0.00,,---,0.89,VWS V14.01,2013-04-10 03:23:00,
2013-04-09 23:29:00,44.6,43.5,29.98,NNE,19,7.0,11.0,96,0.00,,---,0.89,VWS V14.01,2013-04-10 03:29:00,
2013-04-09 23:34:00,44.5,43.4,29.98,NE,34,4.0,11.0,96,0.00,,---,0.89,VWS V14.01,2013-04-10 03:34:00,
2013-04-09 23:39:00,44.4,43.3,29.98,NE,56,4.0,11.0,96,0.00,,---,0.89,VWS V14.01,2013-04-10 03:39:00,
2013-04-09 23:44:00,44.3,43.2,29.98,NNE,31,4.0,11.0,96,0.00,,---,0.89,VWS V14.01,2013-04-10 03:44:00,
2013-04-09 23:49:00,44.3,43.2,29.98,NNE,25,8.0,11.0,96,0.00,,---,0.89,VWS V14.01,2013-04-10 03:49:00,
2013-04-09 23:54:00,44.1,43.0,29.99,NE,44,5.0,11.0,96,0.00,,---,0.89,VWS V14.01,2013-04-10 03:54:00,
2013-04-09 23:59:00,44.0,42.9,29.99,NE,50,10.0,12.0,96,0.00,,---,0.89,VWS V14.01,2013-04-10 03:59:00,